Time;durP1;ratioP1;P1;durP2;ratioP2;P2;SDS_P1;SDS_P2;PMS_P1;PMS_P2;Temp;Humidity;BMP_temperature;BMP_pressure;BME280_temperature;BME280_humidity;BME280_pressure;Samples;Min_cycle;Max_cycle;Signal;HPM_P1;HPM_P2
2022/07/09 00:00:48;;;;;;;3.53;2.20;;;17.80;99.90;;;;;;10356116;28;20231;-66
2022/07/09 00:05:49;;;;;;;4.87;2.30;;;17.70;99.90;;;;;;10342441;28;20224;-67
2022/07/09 00:10:50;;;;;;;4.90;2.30;;;17.70;99.90;;;;;;10340244;28;20226;-67
2022/07/09 00:15:52;;;;;;;4.87;2.70;;;17.60;99.90;;;;;;10336695;28;20235;-66
2022/07/09 00:20:56;;;;;;;4.83;2.60;;;17.60;99.90;;;;;;10336337;28;20646;-66
2022/07/09 00:25:57;;;;;;;4.57;2.57;;;17.50;99.90;;;;;;10344252;28;20221;-68
2022/07/09 00:30:57;;;;;;;3.53;2.07;;;17.50;99.90;;;;;;10339036;28;20257;-67
2022/07/09 00:35:58;;;;;;;6.83;2.83;;;17.50;99.90;;;;;;10322287;28;20246;-66
2022/07/09 00:40:58;;;;;;;6.43;3.53;;;17.50;99.90;;;;;;10327753;28;20240;-66
2022/07/09 00:45:59;;;;;;;7.10;3.23;;;17.40;99.90;;;;;;10343340;28;20376;-67
2022/07/09 00:51:00;;;;;;;5.40;4.20;;;17.30;99.90;;;;;;10337393;28;20903;-67
2022/07/09 00:56:02;;;;;;;7.10;4.30;;;17.20;99.90;;;;;;10325052;28;20687;-66
2022/07/09 01:01:03;;;;;;;5.43;4.10;;;17.20;99.90;;;;;;10340481;28;20233;-67
2022/07/09 01:06:04;;;;;;;6.60;4.40;;;17.20;99.90;;;;;;10332752;28;20228;-66
2022/07/09 01:11:05;;;;;;;6.30;4.20;;;17.20;99.90;;;;;;10345285;28;20227;-66
2022/07/09 01:16:15;;;;;;;4.80;2.80;;;17.20;99.90;;;;;;10308538;28;20706;-66
2022/07/09 01:21:16;;;;;;;2.97;2.77;;;17.20;99.90;;;;;;10348132;28;20824;-67
2022/07/09 01:26:19;;;;;;;3.77;2.90;;;17.20;99.90;;;;;;10341641;28;20253;-67
2022/07/09 01:31:20;;;;;;;4.37;3.00;;;17.10;99.90;;;;;;10337090;28;20236;-66
2022/07/09 01:36:21;;;;;;;5.37;2.90;;;17.00;99.90;;;;;;10341329;28;20254;-67
2022/07/09 01:41:21;;;;;;;6.93;2.90;;;17.00;99.90;;;;;;10343246;28;20260;-66
2022/07/09 01:46:22;;;;;;;3.90;2.80;;;16.90;99.90;;;;;;10341972;28;20226;-67
2022/07/09 01:51:22;;;;;;;3.13;2.70;;;16.90;99.90;;;;;;10340608;28;20221;-67
2022/07/09 01:56:23;;;;;;;3.50;2.70;;;16.80;99.90;;;;;;10344772;28;20283;-67
2022/07/09 02:01:24;;;;;;;4.00;2.33;;;16.80;99.90;;;;;;10345404;28;20312;-67
2022/07/09 02:06:24;;;;;;;3.87;2.60;;;16.70;99.90;;;;;;10336160;28;20232;-67
2022/07/09 02:11:25;;;;;;;3.80;2.50;;;16.70;99.90;;;;;;10330410;28;20225;-68
2022/07/09 02:16:25;;;;;;;3.50;2.70;;;16.70;99.90;;;;;;10337615;28;20232;-67
2022/07/09 02:21:26;;;;;;;3.90;2.50;;;16.70;99.90;;;;;;10342019;28;20231;-66
2022/07/09 02:26:29;;;;;;;3.83;2.23;;;16.70;99.90;;;;;;10326524;28;20710;-67
2022/07/09 02:31:29;;;;;;;5.53;2.60;;;16.60;99.90;;;;;;10342905;28;20253;-67
2022/07/09 02:36:30;;;;;;;6.47;2.77;;;16.60;99.90;;;;;;10347515;28;20241;-67
2022/07/09 02:41:30;;;;;;;3.43;2.70;;;16.50;99.90;;;;;;10340284;28;20707;-67
2022/07/09 02:46:31;;;;;;;5.27;2.70;;;16.50;99.90;;;;;;10350758;28;20260;-66
2022/07/09 02:51:31;;;;;;;6.47;2.80;;;16.40;99.90;;;;;;10343646;28;20311;-67
2022/07/09 02:56:32;;;;;;;5.53;2.90;;;16.30;99.90;;;;;;10343949;28;20224;-67
2022/07/09 03:01:33;;;;;;;4.70;2.80;;;16.20;99.90;;;;;;10343025;28;20232;-66
2022/07/09 03:06:34;;;;;;;5.37;3.30;;;16.10;99.90;;;;;;10337062;28;20884;-66
2022/07/09 03:11:34;;;;;;;4.63;3.40;;;16.10;99.90;;;;;;10327763;28;20230;-67
2022/07/09 03:16:35;;;;;;;4.90;2.87;;;16.10;99.90;;;;;;10346939;28;20233;-66
2022/07/09 03:21:35;;;;;;;3.20;2.90;;;16.10;99.90;;;;;;10330075;28;20217;-66
2022/07/09 03:26:36;;;;;;;5.20;3.50;;;16.10;99.90;;;;;;10352872;28;20251;-66
2022/07/09 03:31:37;;;;;;;7.80;3.30;;;16.10;99.90;;;;;;10328100;28;20260;-66
2022/07/09 03:36:37;;;;;;;3.13;2.83;;;16.00;99.90;;;;;;10348004;28;20605;-67
2022/07/09 03:41:38;;;;;;;5.90;2.80;;;15.90;99.90;;;;;;10349402;28;20299;-67
2022/07/09 03:46:38;;;;;;;6.03;3.00;;;15.90;99.90;;;;;;10355315;28;20225;-67
2022/07/09 03:51:39;;;;;;;4.17;2.40;;;16.00;99.90;;;;;;10338771;28;20229;-66
2022/07/09 03:56:40;;;;;;;5.40;2.77;;;16.10;99.90;;;;;;10344667;28;20228;-66
2022/07/09 04:01:42;;;;;;;3.00;2.70;;;16.10;99.90;;;;;;10321447;28;20226;-67
2022/07/09 04:06:45;;;;;;;3.60;2.60;;;16.30;99.90;;;;;;10322063;28;20781;-67
2022/07/09 04:11:46;;;;;;;3.80;2.40;;;16.40;99.90;;;;;;10343380;28;20270;-67
2022/07/09 04:16:47;;;;;;;5.43;2.67;;;16.50;99.90;;;;;;10345059;28;20842;-67
2022/07/09 04:21:47;;;;;;;3.53;2.40;;;16.70;99.90;;;;;;10329895;28;20221;-67
2022/07/09 04:26:48;;;;;;;3.50;2.50;;;16.90;99.90;;;;;;10341266;28;20314;-67
2022/07/09 04:31:48;;;;;;;3.97;2.43;;;17.00;99.90;;;;;;10336859;28;20248;-68
2022/07/09 04:36:49;;;;;;;3.53;2.77;;;17.30;99.90;;;;;;10328004;28;20276;-68
2022/07/09 04:41:51;;;;;;;3.57;2.20;;;17.60;99.90;;;;;;10335751;28;20767;-68
2022/07/09 04:46:51;;;;;;;3.67;2.67;;;17.90;99.90;;;;;;10327278;28;20232;-68
2022/07/09 04:51:52;;;;;;;4.67;2.70;;;18.40;99.90;;;;;;10334949;28;20228;-69
2022/07/09 04:56:53;;;;;;;7.07;2.30;;;18.70;99.90;;;;;;10295679;28;20225;-68
2022/07/09 05:01:53;;;;;;;4.17;2.23;;;19.00;99.90;;;;;;10345564;28;20421;-67
2022/07/09 05:06:54;;;;;;;4.43;1.97;;;19.30;99.90;;;;;;10344729;28;20233;-67
2022/07/09 05:11:55;;;;;;;5.03;2.93;;;20.20;99.90;;;;;;10328811;28;20284;-66
2022/07/09 05:16:55;;;;;;;6.67;2.00;;;22.50;99.90;;;;;;10337706;28;20229;-68
2022/07/09 05:21:56;;;;;;;6.37;2.07;;;22.60;99.90;;;;;;10329533;28;20218;-68
2022/07/09 05:26:57;;;;;;;2.83;1.70;;;22.70;99.90;;;;;;10337936;28;20317;-67
2022/07/09 05:31:57;;;;;;;2.63;1.43;;;23.50;99.90;;;;;;10353752;28;20702;-67
2022/07/09 05:36:58;;;;;;;5.87;1.80;;;24.20;98.00;;;;;;10329097;28;20287;-68
2022/07/09 05:41:58;;;;;;;3.07;1.80;;;24.00;97.20;;;;;;10356808;28;20217;-67
2022/07/09 05:47:01;;;;;;;3.23;2.00;;;24.60;96.10;;;;;;10349031;28;20231;-67
2022/07/09 05:52:04;;;;;;;4.67;1.97;;;25.90;91.90;;;;;;10356055;28;20867;-67
2022/07/09 05:57:08;;;;;;;5.37;2.97;;;26.60;88.90;;;;;;10334459;28;20237;-67
2022/07/09 06:02:12;;;;;;;3.07;1.97;;;27.50;82.00;;;;;;10361313;28;20249;-69
2022/07/09 06:07:13;;;;;;;4.23;2.20;;;27.60;78.10;;;;;;10332909;28;20256;-67
2022/07/09 06:12:13;;;;;;;4.20;1.70;;;28.00;74.10;;;;;;10350472;28;20246;-68
2022/07/09 06:17:14;;;;;;;3.53;1.87;;;27.70;72.50;;;;;;10347234;28;20286;-68
2022/07/09 06:22:14;;;;;;;4.03;1.80;;;28.40;71.30;;;;;;10336691;28;20220;-67
2022/07/09 06:27:15;;;;;;;3.50;1.83;;;30.30;62.80;;;;;;10351344;28;20226;-68
2022/07/09 06:32:15;;;;;;;7.70;2.20;;;31.90;56.90;;;;;;10336620;28;20232;-68
2022/07/09 06:37:16;;;;;;;8.17;2.10;;;32.90;53.40;;;;;;10348151;28;20252;-68
2022/07/09 06:42:18;;;;;;;3.67;1.47;;;33.80;49.70;;;;;;10331997;28;20222;-68
2022/07/09 06:47:18;;;;;;;4.17;2.03;;;34.90;47.80;;;;;;10347321;28;20241;-67
2022/07/09 06:52:19;;;;;;;4.23;1.73;;;35.30;45.90;;;;;;10346703;28;20650;-68
2022/07/09 06:57:20;;;;;;;8.37;2.20;;;35.70;44.40;;;;;;10348662;28;20240;-68
2022/07/09 07:02:20;;;;;;;5.63;2.03;;;35.20;44.10;;;;;;10339252;28;20251;-68
2022/07/09 07:07:24;;;;;;;7.20;1.90;;;36.10;43.00;;;;;;10351180;28;20231;-67
2022/07/09 07:12:25;;;;;;;3.40;1.60;;;36.50;41.70;;;;;;10345664;28;20833;-68
2022/07/09 07:17:25;;;;;;;3.93;1.90;;;35.70;42.20;;;;;;10333969;28;20350;-67
2022/07/09 07:22:26;;;;;;;5.80;1.93;;;33.30;45.30;;;;;;10347317;28;20324;-67
2022/07/09 07:27:27;;;;;;;3.33;1.83;;;31.80;48.50;;;;;;10341884;28;20232;-67
2022/07/09 07:32:28;;;;;;;6.30;2.73;;;32.20;49.60;;;;;;10347226;28;20248;-67
2022/07/09 07:37:29;;;;;;;6.23;2.63;;;33.00;47.30;;;;;;10333319;28;20226;-67
2022/07/09 07:42:30;;;;;;;5.07;2.30;;;32.90;48.20;;;;;;10320617;28;20355;-68
2022/07/09 07:47:31;;;;;;;6.47;2.80;;;32.80;47.50;;;;;;10343246;28;20606;-66
2022/07/09 07:52:32;;;;;;;6.73;2.37;;;31.70;49.10;;;;;;10323672;28;20267;-67
2022/07/09 07:57:32;;;;;;;8.47;2.47;;;30.50;51.60;;;;;;10353005;28;20716;-66
2022/07/09 08:02:34;;;;;;;3.97;2.37;;;29.80;53.30;;;;;;10339445;28;20300;-67
2022/07/09 08:07:35;;;;;;;9.57;2.93;;;28.80;55.30;;;;;;10352982;28;20225;-66
2022/07/09 08:12:35;;;;;;;5.53;2.93;;;27.90;57.40;;;;;;10335717;28;20233;-67
2022/07/09 08:17:36;;;;;;;7.40;2.70;;;27.40;58.70;;;;;;10338317;28;20236;-67
2022/07/09 08:22:37;;;;;;;5.67;2.40;;;27.50;59.10;;;;;;10334986;28;20674;-67
2022/07/09 08:27:37;;;;;;;3.77;2.50;;;28.30;57.90;;;;;;10345440;28;20325;-66
2022/07/09 08:32:39;;;;;;;6.90;2.73;;;28.50;56.90;;;;;;10337821;28;20280;-67
2022/07/09 08:37:40;;;;;;;4.60;2.50;;;29.20;56.00;;;;;;10344502;28;20232;-67
2022/07/09 08:42:42;;;;;;;7.00;2.83;;;29.40;55.40;;;;;;10339570;28;20298;-67
2022/07/09 08:47:43;;;;;;;8.60;2.87;;;31.20;52.60;;;;;;10330749;28;20796;-67
2022/07/09 08:52:43;;;;;;;5.27;2.40;;;32.20;50.00;;;;;;10339957;28;20226;-67
2022/07/09 08:57:44;;;;;;;7.50;2.30;;;33.80;47.70;;;;;;10339371;28;20237;-68
2022/07/09 09:02:45;;;;;;;5.63;2.20;;;35.20;44.00;;;;;;10334679;28;20755;-67
2022/07/09 09:07:45;;;;;;;4.37;2.17;;;36.00;42.70;;;;;;10333559;28;20224;-67
2022/07/09 09:12:46;;;;;;;7.90;2.50;;;36.50;40.80;;;;;;10348598;28;20214;-67
2022/07/09 09:17:46;;;;;;;6.03;2.43;;;35.00;42.20;;;;;;10344924;28;20228;-67
2022/07/09 09:22:49;;;;;;;6.97;3.00;;;32.20;46.50;;;;;;10354162;28;20217;-67
2022/07/09 09:27:55;;;;;;;7.67;3.20;;;30.30;50.30;;;;;;10345624;28;21105;-67
2022/07/09 09:32:59;;;;;;;6.97;2.43;;;29.00;53.10;;;;;;10347877;28;20228;-68
2022/07/09 09:38:00;;;;;;;5.37;2.80;;;29.30;53.40;;;;;;10358492;28;20294;-68
2022/07/09 09:43:02;;;;;;;3.70;2.37;;;32.00;47.30;;;;;;10349155;28;21090;-68
2022/07/09 09:48:05;;;;;;;6.00;2.73;;;32.40;46.60;;;;;;10359102;28;20251;-67
2022/07/09 09:53:07;;;;;;;4.77;2.20;;;32.90;45.30;;;;;;10328695;28;20309;-67
2022/07/09 09:58:10;;;;;;;2.97;1.87;;;32.50;45.80;;;;;;10345802;28;20716;-67
2022/07/09 10:03:12;;;;;;;4.90;1.60;;;34.10;42.60;;;;;;10346998;28;20598;-67
2022/07/09 10:08:12;;;;;;;4.90;2.00;;;36.00;38.60;;;;;;10348237;28;20612;-67
2022/07/09 10:13:21;;;;;;;5.30;2.80;;;33.30;42.20;;;;;;10355055;28;20237;-67
2022/07/09 10:18:21;;;;;;;5.43;1.83;;;34.10;42.30;;;;;;10351057;28;20230;-67
2022/07/09 10:23:24;;;;;;;5.33;1.80;;;35.30;40.10;;;;;;10340058;28;20586;-67
2022/07/09 10:28:25;;;;;;;3.17;1.70;;;34.30;41.20;;;;;;10344117;28;20229;-68
2022/07/09 10:33:34;;;;;;;4.80;1.90;;;34.60;39.70;;;;;;10348943;28;20308;-70
2022/07/09 10:38:38;;;;;;;5.63;1.63;;;33.10;41.50;;;;;;10346458;28;20242;-67
2022/07/09 10:43:41;;;;;;;3.93;1.70;;;32.30;42.90;;;;;;10347962;28;20685;-68
2022/07/09 10:48:44;;;;;;;9.90;1.57;;;31.00;45.10;;;;;;10336496;28;20584;-67
2022/07/09 10:53:45;;;;;;;3.60;1.50;;;31.10;46.00;;;;;;10339665;28;20279;-68
2022/07/09 10:58:47;;;;;;;7.50;1.37;;;33.00;43.20;;;;;;10342978;28;20536;-68
2022/07/09 11:03:50;;;;;;;1.83;1.10;;;33.40;41.70;;;;;;10344845;28;20723;-68
2022/07/09 11:08:51;;;;;;;1.30;1.20;;;32.90;42.00;;;;;;10335666;28;20222;-67
2022/07/09 11:13:54;;;;;;;1.87;1.00;;;35.80;37.80;;;;;;10348260;28;20290;-67
2022/07/09 11:18:55;;;;;;;3.47;1.00;;;37.40;34.50;;;;;;10334543;28;20230;-67
2022/07/09 11:23:56;;;;;;;3.17;1.10;;;35.80;37.20;;;;;;10343755;28;20214;-68
2022/07/09 11:28:56;;;;;;;1.77;1.10;;;35.90;36.60;;;;;;10346775;28;20221;-67
2022/07/09 11:34:11;;;;;;;1.63;1.10;;;36.90;35.10;;;;;;10346271;28;20224;-67
2022/07/09 11:39:31;;;;;;;1.43;0.90;;;36.80;34.90;;;;;;10329772;28;20234;-68
2022/07/09 11:44:36;;;;;;;2.37;1.30;;;35.60;36.50;;;;;;10343593;28;20319;-67
2022/07/09 11:49:41;;;;;;;1.73;1.50;;;34.20;37.90;;;;;;10334359;28;20313;-67
2022/07/09 11:55:09;;;;;;;3.03;1.40;;;33.00;40.40;;;;;;10338462;28;20229;-67
2022/07/09 12:00:25;;;;;;;5.17;1.60;;;32.20;41.40;;;;;;10348996;28;20233;-67
2022/07/09 12:05:25;;;;;;;3.93;1.80;;;31.40;42.60;;;;;;10326908;28;20221;-68
2022/07/09 12:10:32;;;;;;;1.80;1.70;;;31.20;43.30;;;;;;10347134;28;20216;-66
2022/07/09 12:15:33;;;;;;;2.63;1.30;;;31.60;43.30;;;;;;10344458;28;20234;-67
2022/07/09 12:20:34;;;;;;;4.17;1.90;;;31.50;42.50;;;;;;10319045;28;20242;-67
2022/07/09 12:25:34;;;;;;;12.83;1.73;;;31.30;42.70;;;;;;10344229;28;20696;-68
2022/07/09 12:30:35;;;;;;;3.60;1.40;;;30.70;44.30;;;;;;10338996;28;20233;-68
2022/07/09 12:35:36;;;;;;;3.70;1.43;;;30.30;44.00;;;;;;10344832;28;20221;-66
2022/07/09 12:40:36;;;;;;;9.30;1.73;;;30.00;44.10;;;;;;10345579;28;20704;-67
2022/07/09 12:45:37;;;;;;;2.80;1.53;;;30.10;44.70;;;;;;10338662;28;20301;-67
2022/07/09 12:50:38;;;;;;;2.07;1.53;;;30.00;44.20;;;;;;10328494;28;20246;-67
2022/07/09 12:55:38;;;;;;;1.30;1.20;;;30.00;44.30;;;;;;10344151;28;20232;-67
2022/07/09 13:00:42;;;;;;;4.47;1.80;;;29.90;44.40;;;;;;10342141;28;20249;-67
2022/07/09 13:05:42;;;;;;;3.77;1.20;;;30.00;45.00;;;;;;10326889;28;20229;-68
2022/07/09 13:10:43;;;;;;;21.13;2.23;;;30.30;44.80;;;;;;10338393;28;20220;-67
2022/07/09 13:15:44;;;;;;;2.87;1.50;;;30.60;44.30;;;;;;10344430;28;20274;-67
2022/07/09 13:20:45;;;;;;;1.87;1.40;;;30.50;44.80;;;;;;10349031;28;20222;-68
2022/07/09 13:25:45;;;;;;;2.30;1.43;;;30.50;45.10;;;;;;10336372;28;20685;-67
2022/07/09 13:30:46;;;;;;;2.30;1.40;;;30.10;45.60;;;;;;10348914;28;20761;-67
2022/07/09 13:35:46;;;;;;;1.70;1.43;;;30.00;45.80;;;;;;10351327;28;20253;-67
2022/07/09 13:40:47;;;;;;;2.87;1.40;;;30.20;46.00;;;;;;10338488;28;20234;-67
2022/07/09 13:45:47;;;;;;;5.17;1.70;;;30.30;44.60;;;;;;10347597;28;20229;-67
2022/07/09 13:50:48;;;;;;;2.67;1.63;;;30.10;44.20;;;;;;10345846;28;20219;-67
2022/07/09 13:55:49;;;;;;;1.40;1.27;;;30.20;44.00;;;;;;10341872;28;20316;-67
2022/07/09 14:00:50;;;;;;;1.77;1.30;;;30.00;44.00;;;;;;10341210;28;20320;-67
2022/07/09 14:05:50;;;;;;;6.13;1.20;;;29.90;43.50;;;;;;10349378;28;20300;-66
2022/07/09 14:10:57;;;;;;;2.97;1.00;;;29.70;42.20;;;;;;10326981;28;20229;-67
2022/07/09 14:15:58;;;;;;;1.30;1.10;;;29.30;42.80;;;;;;10349980;28;20229;-67
2022/07/09 14:20:59;;;;;;;3.73;1.20;;;29.10;42.60;;;;;;10348737;28;20228;-68
2022/07/09 14:26:00;;;;;;;2.13;1.13;;;28.80;45.00;;;;;;10347847;28;20235;-67
2022/07/09 14:31:00;;;;;;;5.00;1.53;;;28.40;46.60;;;;;;10349210;28;20221;-67
2022/07/09 14:36:01;;;;;;;1.33;1.00;;;28.40;45.90;;;;;;10343086;28;20228;-67
2022/07/09 14:41:02;;;;;;;1.33;0.93;;;28.30;46.30;;;;;;10349111;28;20715;-69
2022/07/09 14:46:02;;;;;;;8.33;1.47;;;28.30;46.20;;;;;;10347641;28;20703;-67
2022/07/09 14:51:03;;;;;;;2.57;1.60;;;28.40;45.70;;;;;;10346429;28;20225;-68
2022/07/09 14:56:04;;;;;;;2.83;1.30;;;28.50;46.10;;;;;;10348355;28;20236;-67
2022/07/09 15:01:08;;;;;;;2.27;1.30;;;28.50;46.40;;;;;;10310848;28;20229;-67
2022/07/09 15:06:09;;;;;;;2.73;1.90;;;28.70;46.40;;;;;;10337562;28;20619;-68
2022/07/09 15:11:11;;;;;;;5.70;1.53;;;28.60;45.10;;;;;;10326471;28;20229;-67
2022/07/09 15:16:11;;;;;;;2.70;1.50;;;28.80;45.20;;;;;;10349692;28;20247;-67
2022/07/09 15:21:12;;;;;;;3.47;1.43;;;29.10;44.80;;;;;;10350443;28;20795;-68
2022/07/09 15:26:13;;;;;;;4.27;1.40;;;28.90;44.70;;;;;;10334845;28;20226;-68
2022/07/09 15:31:13;;;;;;;1.40;1.30;;;28.80;44.80;;;;;;10355451;28;20611;-67
2022/07/09 15:36:17;;;;;;;3.37;1.80;;;28.80;44.60;;;;;;10326892;28;20348;-68
2022/07/09 15:41:18;;;;;;;2.27;1.53;;;28.70;45.10;;;;;;10345809;28;20245;-67
2022/07/09 15:46:18;;;;;;;2.80;1.80;;;28.50;45.40;;;;;;10345602;28;20368;-66
2022/07/09 15:51:19;;;;;;;3.73;1.93;;;28.40;45.80;;;;;;10345898;28;20237;-67
2022/07/09 15:56:21;;;;;;;1.90;1.40;;;28.30;46.20;;;;;;10331995;28;20229;-68
2022/07/09 16:01:22;;;;;;;4.93;2.00;;;28.00;46.90;;;;;;10342510;28;20243;-68
2022/07/09 16:06:22;;;;;;;2.90;1.90;;;27.70;47.10;;;;;;10332839;28;20689;-66
2022/07/09 16:16:42;;;;;;;5.63;2.03;;;27.00;48.20;;;;;;10323113;28;20224;-67
2022/07/09 16:21:43;;;;;;;2.87;1.43;;;26.80;48.90;;;;;;10351747;28;20219;-67
2022/07/09 16:26:43;;;;;;;5.63;2.17;;;26.70;49.60;;;;;;10336092;28;20222;-67
2022/07/09 16:31:44;;;;;;;2.50;1.63;;;26.40;50.10;;;;;;10343413;28;20265;-67
2022/07/09 16:36:45;;;;;;;7.50;2.20;;;26.10;50.60;;;;;;10344302;28;20222;-67
2022/07/09 16:41:45;;;;;;;3.13;2.00;;;25.90;51.40;;;;;;10334883;28;20703;-67
2022/07/09 16:46:46;;;;;;;4.67;1.90;;;25.70;52.10;;;;;;10332626;28;20830;-66
2022/07/09 16:51:50;;;;;;;3.20;1.80;;;25.40;53.30;;;;;;10345713;28;20237;-68
2022/07/09 16:56:51;;;;;;;8.63;2.13;;;25.10;58.50;;;;;;10350215;28;20225;-67
2022/07/09 17:01:52;;;;;;;1.93;1.70;;;24.30;62.70;;;;;;10330666;28;20316;-67
2022/07/09 17:06:53;;;;;;;2.60;1.80;;;23.70;69.50;;;;;;10310358;28;20309;-67
2022/07/09 17:11:54;;;;;;;3.20;2.10;;;23.10;72.60;;;;;;10333762;28;20213;-67
2022/07/09 17:16:55;;;;;;;3.03;2.17;;;22.90;73.50;;;;;;10341637;28;20862;-66
2022/07/09 17:21:55;;;;;;;8.70;2.10;;;22.90;74.60;;;;;;10338331;28;20222;-68
2022/07/09 17:26:56;;;;;;;5.87;1.97;;;22.70;77.20;;;;;;10334143;28;20241;-67
2022/07/09 17:31:57;;;;;;;3.97;2.70;;;22.40;82.20;;;;;;10346313;28;20238;-67
2022/07/09 17:37:06;;;;;;;3.07;2.40;;;21.90;90.10;;;;;;10349162;28;20610;-67
2022/07/09 17:42:07;;;;;;;4.87;2.47;;;21.40;93.10;;;;;;10344111;28;20225;-67
2022/07/09 17:47:08;;;;;;;4.20;2.20;;;21.20;98.20;;;;;;10337055;28;20233;-68
2022/07/09 17:52:15;;;;;;;2.93;2.60;;;21.20;99.90;;;;;;10354955;28;20253;-67
2022/07/09 17:57:27;;;;;;;4.90;2.70;;;21.10;99.90;;;;;;10345340;28;20229;-68
2022/07/09 18:02:27;;;;;;;3.87;2.70;;;21.20;99.90;;;;;;10324084;28;20248;-67
2022/07/09 18:07:28;;;;;;;3.50;2.90;;;21.30;99.90;;;;;;10347902;28;20464;-67
2022/07/09 18:12:31;;;;;;;4.30;2.70;;;21.40;99.90;;;;;;10349760;28;20229;-66
2022/07/09 18:17:33;;;;;;;3.90;2.93;;;21.30;99.90;;;;;;10353202;28;20247;-66
2022/07/09 18:22:35;;;;;;;3.97;2.50;;;21.20;99.90;;;;;;10344075;28;20285;-67
2022/07/09 18:27:36;;;;;;;3.50;2.97;;;21.20;99.90;;;;;;10358768;28;20256;-67
2022/07/09 18:32:36;;;;;;;4.97;2.73;;;21.20;99.90;;;;;;10345031;28;20230;-66
2022/07/09 18:37:37;;;;;;;3.70;2.73;;;21.40;99.90;;;;;;10334935;28;20732;-67
2022/07/09 18:42:38;;;;;;;2.70;2.50;;;21.30;99.90;;;;;;10331894;28;20233;-67
2022/07/09 18:47:41;;;;;;;2.70;2.50;;;21.30;99.90;;;;;;10350372;28;20323;-67
2022/07/09 18:52:42;;;;;;;3.97;2.57;;;21.30;99.90;;;;;;10348632;28;20688;-67
2022/07/09 18:57:43;;;;;;;2.77;2.20;;;21.40;99.90;;;;;;10334222;28;20240;-67
2022/07/09 19:02:43;;;;;;;3.07;2.60;;;21.50;99.90;;;;;;10350082;28;20233;-67
2022/07/09 19:07:44;;;;;;;4.63;3.30;;;21.50;99.90;;;;;;10339641;28;20313;-67
2022/07/09 19:12:46;;;;;;;3.80;3.00;;;21.40;99.90;;;;;;10356445;28;20221;-69
2022/07/09 19:17:47;;;;;;;3.93;3.37;;;21.30;99.90;;;;;;10343426;28;20312;-67
2022/07/09 19:22:47;;;;;;;3.17;2.97;;;21.10;99.90;;;;;;10332209;28;20288;-67
2022/07/09 19:27:48;;;;;;;4.27;3.70;;;20.90;99.90;;;;;;10342586;28;20222;-67
2022/07/09 19:38:08;;;;;;;4.33;3.93;;;20.70;99.90;;;;;;10330671;28;20258;-67
2022/07/09 19:43:12;;;;;;;4.40;3.63;;;20.50;99.90;;;;;;10350249;28;20225;-67
2022/07/09 19:48:12;;;;;;;5.23;3.97;;;20.40;99.90;;;;;;10356453;28;20316;-67
2022/07/09 19:53:13;;;;;;;5.30;4.30;;;20.30;99.90;;;;;;10333186;28;20328;-66
2022/07/09 19:58:14;;;;;;;4.30;3.90;;;20.20;99.90;;;;;;10351409;28;20233;-67
2022/07/09 20:03:14;;;;;;;6.83;3.80;;;20.00;99.90;;;;;;10345227;28;20228;-66
2022/07/09 20:08:15;;;;;;;5.27;3.97;;;19.90;99.90;;;;;;10337887;28;20630;-67
2022/07/09 20:13:15;;;;;;;4.63;3.87;;;19.80;99.90;;;;;;10344406;28;20367;-67
2022/07/09 20:18:16;;;;;;;5.23;4.40;;;19.70;99.90;;;;;;10345851;28;20880;-68
2022/07/09 20:23:17;;;;;;;4.83;4.43;;;19.50;99.90;;;;;;10344395;28;20221;-67
2022/07/09 20:28:17;;;;;;;7.50;5.80;;;19.40;99.90;;;;;;10344890;28;20247;-68
2022/07/09 20:33:18;;;;;;;5.47;4.97;;;19.30;99.90;;;;;;10344070;28;20263;-67
2022/07/09 20:38:20;;;;;;;4.80;4.27;;;19.10;99.90;;;;;;10339743;28;20723;-67
2022/07/09 20:43:22;;;;;;;5.13;4.63;;;19.00;99.90;;;;;;10333028;28;20957;-67
2022/07/09 20:48:22;;;;;;;5.50;5.00;;;18.90;99.90;;;;;;10341866;28;20236;-67
2022/07/09 20:53:24;;;;;;;5.43;4.77;;;18.80;99.90;;;;;;10338364;28;20231;-67
2022/07/09 20:58:25;;;;;;;6.00;5.50;;;18.80;99.90;;;;;;10330787;28;20232;-66
2022/07/09 21:03:26;;;;;;;6.30;5.70;;;18.70;99.90;;;;;;10343207;28;20619;-67
2022/07/09 21:08:26;;;;;;;6.33;5.17;;;18.60;99.90;;;;;;10351611;28;20231;-66
2022/07/09 21:13:27;;;;;;;6.07;5.30;;;18.60;99.90;;;;;;10348735;28;20252;-67
2022/07/09 21:18:46;;;;;;;4.63;4.23;;;18.50;99.90;;;;;;10342112;28;20222;-67
2022/07/09 21:23:47;;;;;;;5.20;4.70;;;18.60;99.90;;;;;;10360357;28;20312;-67
2022/07/09 21:28:47;;;;;;;4.97;4.50;;;18.90;99.90;;;;;;10351406;28;20314;-67
2022/07/09 21:33:48;;;;;;;6.37;4.57;;;18.90;99.90;;;;;;10348528;28;20601;-67
2022/07/09 21:38:49;;;;;;;4.97;4.57;;;18.90;99.90;;;;;;10354059;28;20322;-67
2022/07/09 21:43:50;;;;;;;4.90;4.50;;;19.00;99.90;;;;;;10351485;28;20328;-68
2022/07/09 21:48:50;;;;;;;4.40;4.00;;;19.00;99.90;;;;;;10341593;28;20241;-67
2022/07/09 21:53:54;;;;;;;5.57;4.30;;;18.90;99.90;;;;;;10345802;28;20225;-67
2022/07/09 21:58:54;;;;;;;4.87;4.40;;;18.90;99.90;;;;;;10347507;28;20239;-68
2022/07/09 22:03:55;;;;;;;5.67;4.70;;;18.80;99.90;;;;;;10350599;28;20716;-67
2022/07/09 22:08:56;;;;;;;6.27;5.67;;;18.60;99.90;;;;;;10324205;28;20232;-67
2022/07/09 22:13:56;;;;;;;6.10;5.50;;;18.50;99.90;;;;;;10356901;28;20220;-67
2022/07/09 22:18:57;;;;;;;7.13;6.00;;;18.30;99.90;;;;;;10348733;28;20251;-67
2022/07/09 22:23:58;;;;;;;9.17;5.90;;;18.10;99.90;;;;;;10336290;28;20219;-67
2022/07/09 22:28:58;;;;;;;7.53;6.20;;;18.00;99.90;;;;;;10349622;28;20224;-67
2022/07/09 22:34:00;;;;;;;7.43;6.27;;;17.80;99.90;;;;;;10357031;28;20214;-68
2022/07/09 22:39:01;;;;;;;7.00;6.50;;;17.70;99.90;;;;;;10344505;28;20659;-67
2022/07/09 22:44:06;;;;;;;8.90;8.00;;;17.70;99.90;;;;;;10349687;28;20270;-67
2022/07/09 22:49:07;;;;;;;8.23;7.50;;;17.60;99.90;;;;;;10345227;28;20757;-71
2022/07/09 22:54:07;;;;;;;9.77;8.87;;;17.50;99.90;;;;;;10331255;28;20336;-68
2022/07/09 22:59:08;;;;;;;8.87;8.13;;;17.50;99.90;;;;;;10335861;28;20228;-66
2022/07/09 23:04:09;;;;;;;9.23;8.20;;;17.40;99.90;;;;;;10343485;28;20271;-67
2022/07/09 23:09:09;;;;;;;11.40;7.80;;;17.40;99.90;;;;;;10341517;28;20329;-67
2022/07/09 23:14:10;;;;;;;7.97;7.17;;;17.40;99.90;;;;;;10347929;28;20226;-67
2022/07/09 23:19:11;;;;;;;7.00;6.27;;;17.30;99.90;;;;;;10346434;28;20574;-67
2022/07/09 23:24:11;;;;;;;6.00;5.50;;;17.30;99.90;;;;;;10340958;28;20299;-67
2022/07/09 23:29:12;;;;;;;5.77;5.27;;;17.30;99.90;;;;;;10347528;28;20344;-67
2022/07/09 23:34:12;;;;;;;5.30;4.57;;;17.30;99.90;;;;;;10341280;28;20227;-67
2022/07/09 23:39:13;;;;;;;5.20;4.80;;;17.20;99.90;;;;;;10330885;28;20232;-67
2022/07/09 23:44:14;;;;;;;5.57;4.90;;;17.20;99.90;;;;;;10338387;28;20870;-67
2022/07/09 23:49:15;;;;;;;6.03;5.17;;;17.20;99.90;;;;;;10346183;28;20273;-66
2022/07/09 23:54:15;;;;;;;4.77;4.37;;;17.10;99.90;;;;;;10337835;28;20656;-67
2022/07/09 23:59:16;;;;;;;5.20;4.70;;;17.10;99.90;;;;;;10326304;28;20230;-67
